Terminal Aerodrome Forecast
Issued by NWS

Home | Current Version | Previous Version | Text Only | Print | Product List | Glossary On
Versions: 1 2 3 4 5 6 7 8 9 10 11 12 13 14 15 16 17 18 19
000
FTUS42 KTBW 131100
TAFPGD
TAF
KPGD 131140Z 1312/1412 09004KT P6SM FEW015 BKN250
     FM131500 13006KT P6SM SCT025 BKN250
     FM131700 24006KT P6SM VCTS SCT035CB SCT100 BKN250
     FM132100 VRB05KT P6SM VCTS SCT040CB BKN100 BKN250
     FM140100 10004KT P6SM SCT050 SCT130 BKN250
     FM140400 VRB03KT P6SM SCT250=

USA.gov is the U.S. government's official web portal to all federal, state and local government web resources and services.